»·PEaware :: AAL485 KSAN-KBFL

AAL485 :: KSAN-KBFL

FLIGHT INFORMATION

Flight Status: Arrived
Operator:
American Airlines
More flights by this operator :: More flights under this callsign
Pilot: Anonymous 39875 (39875)
Aircraft: EMBRAER EMB-170/175
(E170)
More flights by this aircraft type
Origin: KSAN San Diego Intl-Lindbergh
United States
Destination: KBFL Meadows
United States
More flights between these airports :: More routes between these airports
Route: PADRZ2 OROSZ GMN FASTO2
File this flight plan on PilotEdge
Remarks: RMK / SIMBRIEF
Altitude:
(Current/Filed)
24,000ft
Speed:
(Current/Filed)
355kts
Departed: 13-Jan-23 09:12 PM
Arrived: 13-Jan-23 09:49 PM
Distance/Time
Traveled:
187nm/0:37
Distance/Time
To Go:
Arrived

Flight Plot

Page will automatically refresh every two minutes.

Flight plan parsing failed; only flown route is shown


Map Options




Map Legend


Flown Route
Filed Route
Departure Airport
Arrival Airport
Navaid (VOR, NDB)
Fix

Horizontal Profiles

Position Reports

Time Latitude Longitude Heading Altitude Ground
Speed
13-Jan-23 20:55 32.733041 -117.200694 275 25ft 0kts
13-Jan-23 20:57 32.733041 -117.200694 275 25ft 0kts
13-Jan-23 20:58 32.733041 -117.200694 275 25ft 0kts
13-Jan-23 20:59 32.733041 -117.200694 275 25ft 0kts
13-Jan-23 21:00 32.733041 -117.200694 275 25ft 0kts
13-Jan-23 21:00 32.733041 -117.200694 275 25ft 0kts
13-Jan-23 21:01 32.733041 -117.200694 275 25ft 0kts
13-Jan-23 21:02 32.733041 -117.200694 275 25ft 0kts
13-Jan-23 21:04 32.732973 -117.199974 345 25ft 3kts
13-Jan-23 21:05 32.732796 -117.200004 12 25ft 0kts
13-Jan-23 21:05 32.732796 -117.200004 12 25ft 0kts
13-Jan-23 21:06 32.734747 -117.198848 105 25ft 9kts
13-Jan-23 21:07 32.733332 -117.193011 105 25ft 13kts
13-Jan-23 21:08 32.732195 -117.188322 106 25ft 12kts
13-Jan-23 21:09 32.731007 -117.183416 106 25ft 17kts
13-Jan-23 21:10 32.729907 -117.178873 106 25ft 16kts
13-Jan-23 21:11 32.730756 -117.178113 285 25ft 69kts
13-Jan-23 21:12 32.750074 -117.233464 303 2030ft 211kts
13-Jan-23 21:13 32.787709 -117.298040 303 4575ft 252kts
13-Jan-23 21:14 32.829604 -117.365701 306 7296ft 256kts
13-Jan-23 21:15 32.874530 -117.434755 303 10134ft 293kts
13-Jan-23 21:16 32.928459 -117.518662 302 12965ft 333kts
13-Jan-23 21:17 32.986254 -117.608719 301 15409ft 349kts
13-Jan-23 21:18 33.045737 -117.701649 300 17607ft 358kts
13-Jan-23 21:19 33.122986 -117.782415 322 19818ft 388kts
13-Jan-23 21:20 33.221003 -117.842724 324 22026ft 403kts
13-Jan-23 21:21 33.322187 -117.905792 323 24041ft 421kts
13-Jan-23 21:22 33.428690 -117.973334 324 24169ft 447kts
13-Jan-23 21:23 33.539853 -118.043790 324 24167ft 455kts
13-Jan-23 21:24 33.650175 -118.113957 324 24159ft 456kts
13-Jan-23 21:25 33.762274 -118.185547 324 24168ft 456kts
13-Jan-23 21:26 33.873924 -118.257079 324 24168ft 456kts
13-Jan-23 21:27 33.986192 -118.329223 324 24168ft 456kts
13-Jan-23 21:28 34.097955 -118.401259 324 24161ft 456kts
13-Jan-23 21:29 34.209626 -118.473385 324 24161ft 444kts
13-Jan-23 21:30 34.314816 -118.541358 323 22686ft 413kts
13-Jan-23 21:31 34.412188 -118.604754 323 20925ft 394kts
13-Jan-23 21:32 34.506492 -118.666275 323 19123ft 377kts
13-Jan-23 21:33 34.594046 -118.723353 323 17289ft 343kts
13-Jan-23 21:34 34.675335 -118.776709 323 15888ft 323kts
13-Jan-23 21:35 34.753194 -118.827940 324 14686ft 314kts
13-Jan-23 21:36 34.835142 -118.861336 355 14034ft 323kts
13-Jan-23 21:37 34.925271 -118.861191 355 12555ft 315kts
13-Jan-23 21:38 35.009795 -118.861306 356 10536ft 291kts
13-Jan-23 21:39 35.087443 -118.861375 358 9103ft 266kts
13-Jan-23 21:40 35.160091 -118.861410 358 7655ft 263kts
13-Jan-23 21:41 35.226328 -118.861411 358 6062ft 227kts
13-Jan-23 21:42 35.285253 -118.874959 321 4503ft 215kts
13-Jan-23 21:43 35.324113 -118.924441 309 3301ft 180kts
13-Jan-23 21:44 35.356619 -118.963131 313 2633ft 151kts
13-Jan-23 21:45 35.384975 -118.997305 313 1870ft 138kts
13-Jan-23 21:46 35.412833 -119.031099 316 1068ft 141kts
13-Jan-23 21:47 35.438521 -119.061848 316 517ft 69kts
13-Jan-23 21:48 35.443506 -119.065613 129 517ft 9kts
13-Jan-23 21:49 35.441356 -119.062998 136 517ft 16kts
13-Jan-23 21:50 35.437740 -119.058639 135 517ft 13kts
13-Jan-23 21:51 35.437422 -119.056371 133 517ft 6kts
13-Jan-23 21:52 35.437169 -119.055403 93 517ft 6kts
13-Jan-23 21:53 35.437159 -119.055196 93 517ft 0kts

Navigation Log

Ident Type
Flight plan parsing failed, navigation log unavailable